createdAt,value
2023-03-02T00:02:10.635Z,96.86
2023-03-02T00:07:34.787Z,97.80
2023-03-02T00:12:58.329Z,97.37
2023-03-02T00:18:20.167Z,98.21
2023-03-02T00:23:42.039Z,97.89
2023-03-02T00:29:04.380Z,98.04
2023-03-02T00:34:26.346Z,99.39
2023-03-02T00:39:48.256Z,100.00
2023-03-02T00:45:10.228Z,100.00
2023-03-02T00:50:32.136Z,99.73
2023-03-02T00:55:54.976Z,100.00
2023-03-02T01:01:18.697Z,100.00
2023-03-02T01:06:40.779Z,100.00
2023-03-02T01:12:02.683Z,100.00
2023-03-02T01:17:24.686Z,100.00
2023-03-02T01:22:46.585Z,100.00
2023-03-02T01:28:08.468Z,100.00
2023-03-02T01:33:31.350Z,100.00
2023-03-02T01:38:53.267Z,100.00
2023-03-02T01:44:40.026Z,100.00
2023-03-02T01:50:16.558Z,100.00
2023-03-02T01:55:39.326Z,100.00
2023-03-02T02:01:01.262Z,100.00
2023-03-02T02:06:35.117Z,100.00
2023-03-02T02:11:57.220Z,100.00
2023-03-02T02:17:19.877Z,100.00
2023-03-02T02:23:11.473Z,100.00
2023-03-02T02:29:08.959Z,100.00
2023-03-02T02:34:50.731Z,100.00
2023-03-02T02:40:18.465Z,100.00
2023-03-02T02:45:41.044Z,100.00
2023-03-02T02:51:03.125Z,100.00
2023-03-02T02:56:28.460Z,100.00
2023-03-02T03:01:51.302Z,100.00
2023-03-02T03:07:19.662Z,100.00
2023-03-02T03:12:42.531Z,100.00
2023-03-02T03:18:04.474Z,100.00
2023-03-02T03:23:26.632Z,100.00
2023-03-02T03:28:48.496Z,100.00
2023-03-02T03:34:11.033Z,100.00
2023-03-02T03:39:33.313Z,100.00
2023-03-02T03:44:55.148Z,100.00
2023-03-02T03:50:17.081Z,100.00
2023-03-02T03:55:39.020Z,100.00
2023-03-02T04:01:00.852Z,100.00
2023-03-02T04:06:22.674Z,100.00
2023-03-02T04:11:47.219Z,100.00
2023-03-02T04:17:09.107Z,100.00
2023-03-02T04:22:30.960Z,100.00
2023-03-02T04:27:53.604Z,100.00
2023-03-02T04:33:15.420Z,100.00
2023-03-02T04:38:37.262Z,100.00
2023-03-02T04:43:59.275Z,100.00
2023-03-02T04:49:21.182Z,100.00
2023-03-02T04:54:42.983Z,100.00
2023-03-02T05:00:05.348Z,100.00
2023-03-02T05:05:27.803Z,100.00
2023-03-02T05:10:49.645Z,100.00
2023-03-02T05:16:11.632Z,100.00
2023-03-02T05:21:33.988Z,100.00
2023-03-02T05:26:55.871Z,100.00
2023-03-02T05:32:17.821Z,100.00
2023-03-02T05:37:40.006Z,100.00
2023-03-02T05:43:02.349Z,100.00
2023-03-02T05:48:24.212Z,100.00
2023-03-02T05:53:46.046Z,100.00
2023-03-02T05:59:08.550Z,100.00
2023-03-02T06:04:30.585Z,100.00
2023-03-02T06:09:52.476Z,100.00
2023-03-02T06:15:14.335Z,100.00
2023-03-02T06:20:36.166Z,100.00
2023-03-02T06:25:58.632Z,100.00
2023-03-02T06:31:21.241Z,100.00
2023-03-02T06:36:43.196Z,100.00
2023-03-02T06:42:05.042Z,100.00
2023-03-02T06:47:26.892Z,100.00
2023-03-02T06:52:48.833Z,100.00
2023-03-02T06:58:10.668Z,100.00
2023-03-02T07:03:32.565Z,100.00
2023-03-02T07:08:54.582Z,100.00
2023-03-02T07:14:16.448Z,100.00
2023-03-02T07:19:40.648Z,100.00
2023-03-02T07:25:03.028Z,100.00
2023-03-02T07:30:25.729Z,100.00
2023-03-02T07:35:48.089Z,100.00
2023-03-02T07:41:10.441Z,100.00
2023-03-02T07:46:32.362Z,100.00
2023-03-02T07:51:54.302Z,100.00
2023-03-02T07:57:16.294Z,100.00
2023-03-02T08:02:40.052Z,100.00
2023-03-02T08:08:02.015Z,100.00
2023-03-02T08:13:23.837Z,100.00
2023-03-02T08:18:45.713Z,100.00
2023-03-02T08:24:07.830Z,100.00
2023-03-02T08:29:30.666Z,100.00
2023-03-02T08:34:52.555Z,99.36
2023-03-02T08:40:14.658Z,98.46
2023-03-02T08:45:36.567Z,96.32
2023-03-02T08:51:07.710Z,94.58
2023-03-02T08:56:33.182Z,94.16
2023-03-02T09:01:55.287Z,93.11
2023-03-02T09:07:17.219Z,93.86
2023-03-02T09:12:39.157Z,91.88
2023-03-02T09:18:01.048Z,89.58
2023-03-02T09:23:23.151Z,87.96
2023-03-02T09:28:45.011Z,86.63
2023-03-02T09:34:06.923Z,85.40
2023-03-02T09:39:28.808Z,85.46
2023-03-02T09:45:00.144Z,85.05
2023-03-02T09:50:34.833Z,82.93
2023-03-02T09:55:59.001Z,85.04
2023-03-02T10:01:32.675Z,84.93
2023-03-02T10:07:19.966Z,84.64
2023-03-02T10:13:19.085Z,84.05
2023-03-02T10:19:05.609Z,83.41
2023-03-02T10:24:45.792Z,84.48
2023-03-02T10:30:14.606Z,85.52
2023-03-02T10:35:37.980Z,86.00
2023-03-02T10:41:05.862Z,86.34
2023-03-02T10:46:39.655Z,86.30
2023-03-02T10:52:03.467Z,85.81
2023-03-02T10:57:34.425Z,87.09
2023-03-02T11:03:01.908Z,86.67
2023-03-02T11:08:28.559Z,85.15
2023-03-02T11:13:50.504Z,84.56
2023-03-02T11:19:17.590Z,84.63
2023-03-02T11:31:14.208Z,82.36
2023-03-02T11:36:44.237Z,81.13
2023-03-02T11:42:19.267Z,82.29
2023-03-02T11:47:57.651Z,84.23
2023-03-02T11:53:30.306Z,83.11
2023-03-02T11:58:59.691Z,82.58
2023-03-02T12:04:27.563Z,80.76
2023-03-02T12:10:04.517Z,81.78
2023-03-02T12:15:42.938Z,81.49
2023-03-02T12:21:23.259Z,79.59
2023-03-02T12:26:45.239Z,79.45
2023-03-02T12:32:13.892Z,79.63
2023-03-02T12:37:53.640Z,76.35
2023-03-02T12:43:35.100Z,79.13
2023-03-02T12:49:14.099Z,80.65
2023-03-02T12:54:36.170Z,79.34
2023-03-02T13:00:01.442Z,78.25
2023-03-02T13:05:28.810Z,77.63
2023-03-02T13:10:53.780Z,76.70
2023-03-02T13:16:41.074Z,77.78
2023-03-02T13:22:04.253Z,76.58
2023-03-02T13:27:26.897Z,76.58
2023-03-02T13:32:49.113Z,75.58
2023-03-02T13:38:17.600Z,74.79
2023-03-02T13:43:39.783Z,76.59
2023-03-02T13:49:10.376Z,75.90
2023-03-02T13:54:37.656Z,75.06
2023-03-02T13:59:59.985Z,74.37
2023-03-02T14:05:24.000Z,74.39
2023-03-02T14:10:46.981Z,74.92
2023-03-02T14:16:16.504Z,73.70
2023-03-02T14:21:38.541Z,72.90
2023-03-02T14:27:00.727Z,73.86
2023-03-02T14:32:22.599Z,73.90
2023-03-02T14:37:48.473Z,73.64
2023-03-02T14:43:10.928Z,74.39
2023-03-02T14:48:32.787Z,73.80
2023-03-02T14:53:58.010Z,74.03
2023-03-02T14:59:19.955Z,75.68
2023-03-02T15:04:41.849Z,74.95
2023-03-02T15:10:04.068Z,74.65
2023-03-02T15:15:25.913Z,73.69
2023-03-02T15:20:47.790Z,73.37
2023-03-02T15:26:10.564Z,72.70
2023-03-02T15:31:32.773Z,73.44
2023-03-02T15:36:54.875Z,73.19
2023-03-02T15:42:16.694Z,74.75
2023-03-02T15:47:38.538Z,76.28
2023-03-02T15:53:00.423Z,76.70
2023-03-02T15:58:22.642Z,78.00
2023-03-02T16:03:44.715Z,78.92
2023-03-02T16:09:07.052Z,79.10
2023-03-02T16:14:28.937Z,78.89
2023-03-02T16:19:50.759Z,78.18
2023-03-02T16:25:12.623Z,78.08
2023-03-02T16:30:34.794Z,79.31
2023-03-02T16:35:56.623Z,79.07
2023-03-02T16:41:23.727Z,78.69
2023-03-02T16:46:45.753Z,79.88
2023-03-02T16:52:07.584Z,80.19
2023-03-02T16:57:29.440Z,80.43
2023-03-02T17:02:51.838Z,81.04
2023-03-02T17:08:15.372Z,81.34
2023-03-02T17:13:37.415Z,82.09
2023-03-02T17:18:59.983Z,82.34
2023-03-02T17:24:21.886Z,82.37
2023-03-02T17:29:43.799Z,82.56
2023-03-02T17:35:07.397Z,83.07
2023-03-02T17:40:29.330Z,83.62
2023-03-02T17:45:51.229Z,84.06
2023-03-02T17:51:13.267Z,84.35
2023-03-02T17:56:35.209Z,84.57
2023-03-02T18:01:57.091Z,85.34
2023-03-02T18:07:19.054Z,84.27
2023-03-02T18:12:41.025Z,85.75
2023-03-02T18:18:03.198Z,86.14
2023-03-02T18:23:25.262Z,86.16
2023-03-02T18:28:47.234Z,86.31
2023-03-02T18:34:09.222Z,86.72
2023-03-02T18:39:31.179Z,86.66
2023-03-02T18:44:53.283Z,86.86
2023-03-02T18:50:15.187Z,87.83
2023-03-02T18:55:37.130Z,88.05
2023-03-02T19:00:58.980Z,87.84
2023-03-02T19:06:22.070Z,88.95
2023-03-02T19:11:43.985Z,88.86
2023-03-02T19:17:05.830Z,88.93
2023-03-02T19:22:27.693Z,89.38
2023-03-02T19:27:49.694Z,89.54
2023-03-02T19:33:11.572Z,89.36
2023-03-02T19:38:33.445Z,89.87
2023-03-02T19:43:55.275Z,89.45
2023-03-02T19:49:17.395Z,89.54
2023-03-02T19:54:39.216Z,90.21
2023-03-02T20:00:01.037Z,90.05
2023-03-02T20:05:23.209Z,90.36
2023-03-02T20:10:46.555Z,90.68
2023-03-02T20:16:08.835Z,91.33
2023-03-02T20:21:31.678Z,90.63
2023-03-02T20:26:53.552Z,91.01
2023-03-02T20:32:16.013Z,91.20
2023-03-02T20:37:38.574Z,91.40
2023-03-02T20:43:00.463Z,92.35
2023-03-02T20:48:22.527Z,92.02
2023-03-02T20:53:44.420Z,92.46
2023-03-02T20:59:06.328Z,93.04
2023-03-02T21:04:28.274Z,92.79
2023-03-02T21:09:50.207Z,92.94
2023-03-02T21:15:12.384Z,93.31
2023-03-02T21:20:34.732Z,93.71
2023-03-02T21:25:56.691Z,94.86
2023-03-02T21:31:18.628Z,95.14
2023-03-02T21:36:41.961Z,94.78
2023-03-02T21:42:03.966Z,96.13
2023-03-02T21:47:25.811Z,96.08
2023-03-02T21:52:47.935Z,96.63
2023-03-02T21:58:10.469Z,96.29
2023-03-02T22:03:32.319Z,96.71
2023-03-02T22:08:55.122Z,97.21
2023-03-02T22:14:17.775Z,97.88
2023-03-02T22:19:43.031Z,98.13
2023-03-02T22:25:14.516Z,97.07
2023-03-02T22:30:36.340Z,96.91
2023-03-02T22:36:11.655Z,96.44
2023-03-02T22:41:33.636Z,96.89
2023-03-02T22:46:56.096Z,97.26
2023-03-02T22:52:23.812Z,96.97
2023-03-02T22:57:45.704Z,97.58
2023-03-02T23:03:44.288Z,97.13
2023-03-02T23:09:06.690Z,97.59
2023-03-02T23:14:52.939Z,97.99
2023-03-02T23:20:16.179Z,98.44
2023-03-02T23:25:38.053Z,100.00
2023-03-02T23:30:59.901Z,99.35
2023-03-02T23:36:21.813Z,99.31
2023-03-02T23:41:43.706Z,99.99
2023-03-02T23:47:05.647Z,99.63
2023-03-02T23:52:27.490Z,100.00
2023-03-02T23:57:49.389Z,99.22
